createdAt,value
2018-06-23T00:00:03.037Z,13.39
2018-06-23T00:01:02.942Z,13.39
2018-06-23T00:02:02.838Z,13.31
2018-06-23T00:03:02.746Z,13.19
2018-06-23T00:04:02.643Z,13.13
2018-06-23T00:05:02.544Z,13.13
2018-06-23T00:06:02.452Z,13.16
2018-06-23T00:07:02.348Z,13.09
2018-06-23T00:08:02.260Z,13.08
2018-06-23T00:09:02.158Z,13.04
2018-06-23T00:10:02.054Z,13.03
2018-06-23T00:11:01.960Z,12.98
2018-06-23T00:12:01.857Z,12.95
2018-06-23T00:13:01.751Z,13.00
2018-06-23T00:14:01.660Z,13.00
2018-06-23T00:15:01.562Z,13.03
2018-06-23T00:16:01.469Z,13.13
2018-06-23T00:17:01.361Z,13.19
2018-06-23T00:18:01.259Z,13.16
2018-06-23T00:19:01.170Z,13.22
2018-06-23T00:20:01.067Z,13.15
2018-06-23T00:21:00.981Z,13.22
2018-06-23T00:22:00.876Z,13.31
2018-06-23T00:23:01.016Z,13.23
2018-06-23T00:24:00.676Z,13.23
2018-06-23T00:25:00.577Z,13.20
2018-06-23T00:26:00.485Z,13.31
2018-06-23T00:27:00.385Z,13.28
2018-06-23T00:28:00.281Z,13.19
2018-06-23T00:29:00.187Z,13.23
2018-06-23T00:30:00.092Z,13.20
2018-06-23T00:30:59.987Z,13.16
2018-06-23T00:31:59.893Z,13.13
2018-06-23T00:32:59.785Z,13.19
2018-06-23T00:33:59.683Z,13.19
2018-06-23T00:34:59.590Z,13.22
2018-06-23T00:35:59.486Z,13.25
2018-06-23T00:36:59.399Z,13.12
2018-06-23T00:37:59.296Z,13.09
2018-06-23T00:38:59.204Z,13.08
2018-06-23T00:39:59.099Z,13.11
2018-06-23T00:40:59.001Z,13.09
2018-06-23T00:41:58.898Z,13.12
2018-06-23T00:42:58.805Z,13.11
2018-06-23T00:43:58.700Z,13.05
2018-06-23T00:44:58.606Z,13.11
2018-06-23T00:45:58.503Z,13.20
2018-06-23T00:46:58.406Z,13.20
2018-06-23T00:47:58.314Z,13.19
2018-06-23T00:48:58.207Z,13.12
2018-06-23T00:49:58.105Z,13.20
2018-06-23T00:50:58.012Z,13.22
2018-06-23T00:51:57.908Z,13.27
2018-06-23T00:52:57.821Z,13.16
2018-06-23T00:53:57.718Z,13.18
2018-06-23T00:54:57.612Z,13.18
2018-06-23T00:55:57.524Z,13.19
2018-06-23T00:56:57.427Z,13.16
2018-06-23T00:57:57.319Z,13.12
2018-06-23T00:58:57.225Z,13.18
2018-06-23T00:59:57.125Z,13.18
2018-06-23T01:00:57.028Z,13.18
2018-06-23T01:01:56.927Z,13.22
2018-06-23T01:02:57.127Z,13.19
2018-06-23T01:03:56.735Z,13.22
2018-06-23T01:04:56.628Z,13.18
2018-06-23T01:05:56.524Z,13.22
2018-06-23T01:06:56.436Z,13.27
2018-06-23T01:07:56.333Z,13.25
2018-06-23T01:08:56.245Z,13.30
2018-06-23T01:09:56.142Z,13.25
2018-06-23T01:10:56.033Z,13.35
2018-06-23T01:11:55.942Z,13.27
2018-06-23T01:12:55.843Z,13.30
2018-06-23T01:13:55.741Z,13.25
2018-06-23T01:14:55.654Z,13.39
2018-06-23T01:15:55.547Z,13.37
2018-06-23T01:16:55.440Z,13.38
2018-06-23T01:17:55.350Z,13.41
2018-06-23T01:18:55.250Z,13.33
2018-06-23T01:19:55.147Z,13.44
2018-06-23T01:20:55.052Z,13.38
2018-06-23T01:21:54.948Z,13.25
2018-06-23T01:22:54.858Z,13.27
2018-06-23T01:23:54.753Z,13.27
2018-06-23T01:24:54.654Z,13.28
2018-06-23T01:25:54.562Z,13.25
2018-06-23T01:26:54.456Z,13.27
2018-06-23T01:27:54.353Z,13.20
2018-06-23T01:28:54.267Z,13.23
2018-06-23T01:29:54.164Z,13.20
2018-06-23T01:30:54.059Z,13.11
2018-06-23T01:31:53.966Z,13.05
2018-06-23T01:32:53.859Z,13.13
2018-06-23T01:33:53.757Z,13.15
2018-06-23T01:34:53.670Z,13.05
2018-06-23T01:35:53.566Z,13.19
2018-06-23T01:36:53.471Z,13.16
2018-06-23T01:37:53.372Z,13.15
2018-06-23T01:38:53.266Z,13.20
2018-06-23T01:39:53.176Z,13.19
2018-06-23T01:40:53.078Z,13.18
2018-06-23T01:41:52.975Z,13.18
2018-06-23T01:42:52.878Z,13.13
2018-06-23T01:43:52.786Z,13.23
2018-06-23T01:44:52.674Z,13.20
2018-06-23T01:45:52.583Z,13.27
2018-06-23T01:46:52.482Z,13.30
2018-06-23T01:47:52.391Z,13.28
2018-06-23T01:48:52.283Z,13.28
2018-06-23T01:49:52.180Z,13.35
2018-06-23T01:50:52.081Z,13.37
2018-06-23T01:51:51.991Z,13.28
2018-06-23T01:52:51.881Z,13.33
2018-06-23T01:53:51.790Z,13.37
2018-06-23T01:54:51.691Z,13.31
2018-06-23T01:55:51.585Z,13.41
2018-06-23T01:56:51.499Z,13.39
2018-06-23T01:57:51.396Z,13.38
2018-06-23T01:58:51.286Z,13.42
2018-06-23T01:59:51.195Z,13.42
2018-06-23T02:00:51.118Z,13.46
2018-06-23T02:01:50.994Z,13.44
2018-06-23T02:02:51.162Z,13.44
2018-06-23T02:03:50.801Z,13.41
2018-06-23T02:04:50.720Z,13.44
2018-06-23T02:05:50.602Z,13.44
2018-06-23T02:06:50.502Z,13.46
2018-06-23T02:07:50.413Z,13.44
2018-06-23T02:08:50.305Z,13.38
2018-06-23T02:09:50.204Z,13.44
2018-06-23T02:10:50.108Z,13.37
2018-06-23T02:11:50.005Z,13.31
2018-06-23T02:12:49.923Z,13.27
2018-06-23T02:13:49.816Z,13.27
2018-06-23T02:14:49.713Z,13.25
2018-06-23T02:15:49.618Z,13.20
2018-06-23T02:16:49.519Z,13.23
2018-06-23T02:17:49.434Z,13.22
2018-06-23T02:18:49.325Z,13.25
2018-06-23T02:19:49.221Z,13.19
2018-06-23T02:20:49.139Z,13.20
2018-06-23T02:21:49.022Z,13.30
2018-06-23T02:22:48.923Z,13.30
2018-06-23T02:23:48.821Z,13.30
2018-06-23T02:24:48.724Z,13.25
2018-06-23T02:25:48.622Z,13.25
2018-06-23T02:26:48.522Z,13.23
2018-06-23T02:27:48.429Z,13.25
2018-06-23T02:28:48.333Z,13.25
2018-06-23T02:29:48.240Z,13.23
2018-06-23T02:30:48.131Z,13.31
2018-06-23T02:31:48.028Z,13.33
2018-06-23T02:32:47.941Z,13.15
2018-06-23T02:33:47.836Z,13.20
2018-06-23T02:34:47.736Z,13.11
2018-06-23T02:35:47.645Z,13.05
2018-06-23T02:36:47.538Z,13.09
2018-06-23T02:37:47.446Z,13.04
2018-06-23T02:38:47.347Z,13.11
2018-06-23T02:39:47.243Z,13.12
2018-06-23T02:40:47.149Z,13.09
2018-06-23T02:41:47.046Z,13.15
2018-06-23T02:42:46.941Z,13.12
2018-06-23T02:43:46.849Z,13.09
2018-06-23T02:44:46.750Z,13.08
2018-06-23T02:45:46.646Z,13.09
2018-06-23T02:46:46.555Z,13.01
2018-06-23T02:47:46.451Z,13.01
2018-06-23T02:48:46.352Z,12.97
2018-06-23T02:49:46.260Z,12.98
2018-06-23T02:50:46.157Z,12.91
2018-06-23T02:51:46.065Z,12.90
2018-06-23T02:52:45.957Z,12.86
2018-06-23T02:53:45.854Z,12.83
2018-06-23T02:54:45.751Z,12.78
2018-06-23T02:55:45.660Z,12.83
2018-06-23T02:56:45.560Z,12.73
2018-06-23T02:57:45.458Z,12.78
2018-06-23T02:58:45.369Z,12.73
2018-06-23T02:59:45.265Z,12.75
2018-06-23T03:00:45.159Z,12.72
2018-06-23T03:01:45.067Z,12.68
2018-06-23T03:02:44.965Z,12.65
2018-06-23T03:03:44.875Z,12.60
2018-06-23T03:04:44.769Z,12.45
2018-06-23T03:05:44.665Z,12.53
2018-06-23T03:06:44.575Z,12.54
2018-06-23T03:07:44.472Z,12.57
2018-06-23T03:08:44.373Z,12.47
2018-06-23T03:09:44.271Z,12.54
2018-06-23T03:10:44.175Z,12.49
2018-06-23T03:11:44.072Z,12.49
2018-06-23T03:12:43.973Z,12.46
2018-06-23T03:13:43.881Z,12.47
2018-06-23T03:14:43.776Z,12.49
2018-06-23T03:15:43.674Z,12.49
2018-06-23T03:16:43.579Z,12.46
2018-06-23T03:17:43.479Z,12.50
2018-06-23T03:18:43.378Z,12.47
2018-06-23T03:19:43.278Z,12.53
2018-06-23T03:20:43.178Z,12.50
2018-06-23T03:21:43.090Z,12.57
2018-06-23T03:22:42.984Z,12.54
2018-06-23T03:23:42.882Z,12.49
2018-06-23T03:24:42.781Z,12.54
2018-06-23T03:25:42.690Z,12.50
2018-06-23T03:26:42.583Z,12.47
2018-06-23T03:27:42.479Z,12.60
2018-06-23T03:28:42.392Z,12.62
2018-06-23T03:29:42.289Z,12.58
2018-06-23T03:30:42.188Z,12.57
2018-06-23T03:31:42.101Z,12.57
2018-06-23T03:32:41.990Z,12.65
2018-06-23T03:33:41.886Z,12.64
2018-06-23T03:34:41.798Z,12.62
2018-06-23T03:35:41.695Z,12.75
2018-06-23T03:36:41.588Z,12.70
2018-06-23T03:37:41.496Z,12.72
2018-06-23T03:38:41.394Z,12.76
2018-06-23T03:39:41.291Z,12.72
2018-06-23T03:40:41.193Z,12.78
2018-06-23T03:41:41.105Z,12.72
2018-06-23T03:42:40.994Z,12.80
2018-06-23T03:43:40.936Z,12.79
2018-06-23T03:44:40.804Z,12.79
2018-06-23T03:45:40.700Z,12.75
2018-06-23T03:46:40.608Z,12.85
2018-06-23T03:47:40.506Z,12.90
2018-06-23T03:48:40.397Z,12.83
2018-06-23T03:49:40.306Z,12.80
2018-06-23T03:50:40.209Z,12.97
2018-06-23T03:51:40.106Z,12.86
2018-06-23T03:52:40.011Z,12.91
2018-06-23T03:53:39.910Z,13.03
2018-06-23T03:54:39.806Z,13.01
2018-06-23T03:55:39.711Z,13.04
2018-06-23T03:56:39.613Z,13.08
2018-06-23T03:57:39.508Z,13.09
2018-06-23T03:58:39.420Z,13.08
2018-06-23T03:59:39.313Z,13.11
2018-06-23T04:00:39.215Z,13.01
2018-06-23T04:01:39.125Z,12.98
2018-06-23T04:02:39.017Z,13.00
2018-06-23T04:03:38.927Z,13.03
2018-06-23T04:04:38.839Z,12.97
2018-06-23T04:05:38.717Z,13.00
2018-06-23T04:06:38.631Z,12.97
2018-06-23T04:07:38.528Z,12.95
2018-06-23T04:08:38.421Z,12.91
2018-06-23T04:09:38.330Z,12.97
2018-06-23T04:10:38.225Z,12.91
2018-06-23T04:11:38.133Z,12.95
2018-06-23T04:12:38.047Z,12.90
2018-06-23T04:13:37.930Z,12.90
2018-06-23T04:14:37.836Z,12.94
2018-06-23T04:15:37.784Z,12.97
2018-06-23T04:16:37.633Z,13.00
2018-06-23T04:17:37.791Z,12.95
2018-06-23T04:18:37.455Z,12.98
2018-06-23T04:19:37.338Z,13.03
2018-06-23T04:20:37.243Z,13.05
2018-06-23T04:21:37.140Z,13.05
2018-06-23T04:22:37.051Z,13.20
2018-06-23T04:23:36.947Z,13.04
2018-06-23T04:24:36.841Z,13.23
2018-06-23T04:25:36.750Z,13.04
2018-06-23T04:26:36.650Z,13.13
2018-06-23T04:27:36.545Z,13.22
2018-06-23T04:28:36.457Z,13.31
2018-06-23T04:29:36.354Z,13.22
2018-06-23T04:30:36.261Z,13.33
2018-06-23T04:31:36.157Z,13.30
2018-06-23T04:32:36.058Z,13.42
2018-06-23T04:33:35.966Z,13.33
2018-06-23T04:34:35.861Z,13.42
2018-06-23T04:35:35.760Z,13.52
2018-06-23T04:36:35.663Z,13.46
2018-06-23T04:37:35.560Z,13.50
2018-06-23T04:38:35.475Z,13.59
2018-06-23T04:39:35.371Z,13.54
2018-06-23T04:40:35.264Z,13.46
2018-06-23T04:41:35.177Z,13.46
2018-06-23T04:42:35.069Z,13.53
2018-06-23T04:43:34.976Z,13.47
2018-06-23T04:44:34.878Z,13.37
2018-06-23T04:45:34.787Z,13.38
2018-06-23T04:46:34.680Z,13.35
2018-06-23T04:47:34.577Z,13.38
2018-06-23T04:48:34.489Z,13.46
2018-06-23T04:49:34.386Z,13.44
2018-06-23T04:50:34.298Z,13.54
2018-06-23T04:51:34.195Z,13.47
2018-06-23T04:52:34.087Z,13.53
2018-06-23T04:53:33.995Z,13.52
2018-06-23T04:54:33.895Z,13.53
2018-06-23T04:55:33.806Z,13.53
2018-06-23T04:56:33.696Z,13.53
2018-06-23T04:57:33.605Z,13.46
2018-06-23T04:58:33.504Z,13.54
2018-06-23T04:59:33.401Z,13.54
2018-06-23T05:00:33.368Z,13.70
2018-06-23T05:01:33.212Z,14.08
2018-06-23T05:02:33.121Z,15.04
2018-06-23T05:03:33.026Z,14.89
2018-06-23T05:04:32.912Z,14.59
2018-06-23T05:05:32.818Z,14.18
2018-06-23T05:06:32.714Z,14.03
2018-06-23T05:07:32.624Z,13.92
2018-06-23T05:08:32.523Z,14.58
2018-06-23T05:09:32.433Z,14.77
2018-06-23T05:10:32.328Z,14.41
2018-06-23T05:11:32.236Z,14.15
2018-06-23T05:12:32.137Z,13.99
2018-06-23T05:13:32.048Z,14.47
2018-06-23T05:14:31.942Z,15.59
2018-06-23T05:15:31.849Z,15.68
2018-06-23T05:16:31.742Z,15.36
2018-06-23T05:17:31.652Z,14.88
2018-06-23T05:18:31.556Z,14.81
2018-06-23T05:19:31.464Z,14.72
2018-06-23T05:20:31.358Z,14.41
2018-06-23T05:21:31.264Z,14.44
2018-06-23T05:22:31.182Z,14.20
2018-06-23T05:23:31.072Z,14.15
2018-06-23T05:24:30.985Z,14.08
2018-06-23T05:25:30.886Z,14.20
2018-06-23T05:26:30.786Z,14.33
2018-06-23T05:27:30.681Z,14.82
2018-06-23T05:28:30.595Z,15.46
2018-06-23T05:29:30.492Z,15.21
2018-06-23T05:30:30.403Z,14.78
2018-06-23T05:31:30.300Z,14.81
2018-06-23T05:32:30.205Z,15.15
2018-06-23T05:33:30.114Z,15.91
2018-06-23T05:34:30.015Z,15.64
2018-06-23T05:35:29.924Z,15.62
2018-06-23T05:36:29.816Z,14.86
2018-06-23T05:37:29.975Z,15.22
2018-06-23T05:38:29.620Z,14.96
2018-06-23T05:39:29.531Z,15.59
2018-06-23T05:40:29.441Z,16.47
2018-06-23T05:41:29.339Z,17.26
2018-06-23T05:42:29.246Z,16.99
2018-06-23T05:43:29.155Z,16.81
2018-06-23T05:44:29.059Z,16.29
2018-06-23T05:45:28.969Z,16.64
2018-06-23T05:46:28.860Z,16.61
2018-06-23T05:47:28.769Z,16.38
2018-06-23T05:48:28.676Z,15.80
2018-06-23T05:49:28.572Z,15.75
2018-06-23T05:50:28.483Z,15.59
2018-06-23T05:51:28.394Z,15.27
2018-06-23T05:52:28.286Z,15.14
2018-06-23T05:53:28.204Z,15.04
2018-06-23T05:54:28.107Z,15.10
2018-06-23T05:55:28.015Z,15.04
2018-06-23T05:56:27.917Z,15.03
2018-06-23T05:57:28.126Z,15.02
2018-06-23T05:58:27.717Z,14.97
2018-06-23T05:59:27.624Z,15.03
2018-06-23T06:00:27.539Z,15.03
2018-06-23T06:01:27.436Z,14.96
2018-06-23T06:02:27.346Z,14.86
2018-06-23T06:03:27.258Z,14.79
2018-06-23T06:04:27.150Z,14.65
2018-06-23T06:05:27.057Z,14.45
2018-06-23T06:06:26.969Z,14.48
2018-06-23T06:07:26.866Z,14.58
2018-06-23T06:08:26.772Z,14.77
2018-06-23T06:09:26.668Z,14.96
2018-06-23T06:10:26.579Z,14.94
2018-06-23T06:11:26.500Z,15.09
2018-06-23T06:12:26.388Z,15.11
2018-06-23T06:13:26.298Z,15.09
2018-06-23T06:14:26.200Z,15.59
2018-06-23T06:15:26.097Z,15.62
2018-06-23T06:16:26.012Z,15.43
2018-06-23T06:17:25.908Z,15.42
2018-06-23T06:18:25.820Z,15.27
2018-06-23T06:19:25.729Z,15.18
2018-06-23T06:20:25.620Z,15.18
2018-06-23T06:21:25.529Z,15.09
2018-06-23T06:22:25.430Z,15.21
2018-06-23T06:23:25.340Z,15.15
2018-06-23T06:24:25.246Z,15.24
2018-06-23T06:25:25.141Z,15.22
2018-06-23T06:26:25.049Z,15.21
2018-06-23T06:27:24.946Z,15.29
2018-06-23T06:28:24.858Z,14.99
2018-06-23T06:29:24.785Z,14.86
2018-06-23T06:30:24.663Z,14.91
2018-06-23T06:31:24.577Z,14.88
2018-06-23T06:32:24.473Z,14.89
2018-06-23T06:33:24.382Z,14.88
2018-06-23T06:34:24.288Z,14.86
2018-06-23T06:35:24.184Z,14.68
2018-06-23T06:36:24.091Z,14.69
2018-06-23T06:37:23.987Z,14.63
2018-06-23T06:38:23.901Z,14.60
2018-06-23T06:39:23.810Z,14.63
2018-06-23T06:40:23.703Z,14.48
2018-06-23T06:41:23.612Z,14.37
2018-06-23T06:42:23.509Z,14.30
2018-06-23T06:43:23.421Z,14.17
2018-06-23T06:44:23.321Z,14.12
2018-06-23T06:45:23.229Z,14.05
2018-06-23T06:46:23.122Z,13.90
2018-06-23T06:47:23.029Z,13.81
2018-06-23T06:48:22.942Z,13.79
2018-06-23T06:49:22.839Z,13.83
2018-06-23T06:50:22.750Z,13.60
2018-06-23T06:51:22.648Z,13.46
2018-06-23T06:52:22.552Z,13.56
2018-06-23T06:53:22.461Z,13.44
2018-06-23T06:54:22.362Z,13.46
2018-06-23T06:55:22.258Z,13.41
2018-06-23T06:56:22.164Z,13.35
2018-06-23T06:57:22.060Z,13.42
2018-06-23T06:58:21.967Z,13.47
2018-06-23T06:59:21.865Z,13.35
2018-06-23T07:00:21.778Z,13.22
2018-06-23T07:01:21.674Z,13.04
2018-06-23T07:02:21.833Z,13.08
2018-06-23T07:03:21.478Z,13.19
2018-06-23T07:04:21.391Z,13.38
2018-06-23T07:05:21.287Z,13.47
2018-06-23T07:06:21.196Z,13.62
2018-06-23T07:07:21.094Z,13.68
2018-06-23T07:08:20.997Z,13.71
2018-06-23T07:09:20.894Z,13.71
2018-06-23T07:10:20.803Z,13.79
2018-06-23T07:11:20.702Z,13.95
2018-06-23T07:12:20.612Z,13.95
2018-06-23T07:13:20.509Z,14.00
2018-06-23T07:14:20.422Z,14.22
2018-06-23T07:15:20.318Z,14.33
2018-06-23T07:16:20.222Z,14.36
2018-06-23T07:17:20.119Z,14.45
2018-06-23T07:18:20.022Z,14.62
2018-06-23T07:19:19.929Z,14.65
2018-06-23T07:20:19.831Z,14.62
2018-06-23T07:21:19.731Z,14.77
2018-06-23T07:22:19.643Z,14.69
2018-06-23T07:23:19.537Z,14.73
2018-06-23T07:24:19.451Z,14.70
2018-06-23T07:25:19.348Z,14.84
2018-06-23T07:26:19.252Z,14.78
2018-06-23T07:27:19.150Z,14.62
2018-06-23T07:28:19.062Z,14.54
2018-06-23T07:29:18.958Z,14.37
2018-06-23T07:30:18.866Z,14.17
2018-06-23T07:31:18.776Z,14.03
2018-06-23T07:32:18.667Z,14.05
2018-06-23T07:33:18.577Z,13.83
2018-06-23T07:34:18.507Z,13.67
2018-06-23T07:35:18.574Z,13.70
2018-06-23T07:36:18.287Z,13.75
2018-06-23T07:37:18.193Z,13.93
2018-06-23T07:38:18.086Z,14.17
2018-06-23T07:39:17.994Z,15.27
2018-06-23T07:40:17.898Z,15.46
2018-06-23T07:41:17.808Z,16.15
2018-06-23T07:42:17.709Z,15.94
2018-06-23T07:43:17.606Z,15.82
2018-06-23T07:44:17.521Z,15.86
2018-06-23T07:45:17.416Z,15.88
2018-06-23T07:46:17.327Z,15.68
2018-06-23T07:47:17.225Z,15.62
2018-06-23T07:48:17.130Z,16.16
2018-06-23T07:49:17.038Z,16.53
2018-06-23T07:50:16.936Z,16.32
2018-06-23T07:51:16.846Z,16.65
2018-06-23T07:52:16.751Z,16.89
2018-06-23T07:53:16.648Z,17.19
2018-06-23T07:54:16.559Z,17.20
2018-06-23T07:55:16.468Z,16.75
2018-06-23T07:56:16.373Z,16.71
2018-06-23T07:57:16.280Z,16.66
2018-06-23T07:58:16.184Z,16.61
2018-06-23T07:59:16.081Z,16.35
2018-06-23T08:00:15.994Z,16.05
2018-06-23T08:01:15.902Z,16.00
2018-06-23T08:02:16.110Z,16.13
2018-06-23T08:03:15.707Z,16.28
2018-06-23T08:04:15.612Z,16.31
2018-06-23T08:05:15.521Z,16.49
2018-06-23T08:06:15.437Z,16.53
2018-06-23T08:07:15.333Z,16.31
2018-06-23T08:08:15.239Z,15.95
2018-06-23T08:09:15.147Z,15.83
2018-06-23T08:10:15.060Z,15.59
2018-06-23T08:11:14.951Z,15.49
2018-06-23T08:12:14.865Z,15.54
2018-06-23T08:13:14.773Z,15.44
2018-06-23T08:14:14.669Z,15.36
2018-06-23T08:15:14.577Z,15.62
2018-06-23T08:16:14.490Z,15.77
2018-06-23T08:17:14.400Z,15.83
2018-06-23T08:18:14.294Z,15.68
2018-06-23T08:19:14.204Z,15.75
2018-06-23T08:20:14.109Z,15.76
2018-06-23T08:21:14.006Z,15.80
2018-06-23T08:22:13.921Z,15.67
2018-06-23T08:23:13.842Z,15.77
2018-06-23T08:24:13.735Z,15.77
2018-06-23T08:25:13.633Z,15.61
2018-06-23T08:26:13.603Z,15.33
2018-06-23T08:27:13.448Z,15.25
2018-06-23T08:28:13.349Z,15.15
2018-06-23T08:29:13.257Z,15.22
2018-06-23T08:30:13.167Z,14.89
2018-06-23T08:31:13.060Z,14.79
2018-06-23T08:32:12.973Z,14.89
2018-06-23T08:33:12.883Z,15.02
2018-06-23T08:34:12.781Z,15.00
2018-06-23T08:35:12.690Z,15.37
2018-06-23T08:36:12.583Z,16.29
2018-06-23T08:37:12.493Z,16.71
2018-06-23T08:38:12.406Z,16.47
2018-06-23T08:39:12.301Z,16.05
2018-06-23T08:40:12.205Z,16.09
2018-06-23T08:41:12.114Z,16.01
2018-06-23T08:42:12.013Z,15.97
2018-06-23T08:43:11.924Z,16.75
2018-06-23T08:44:11.835Z,16.84
2018-06-23T08:45:11.732Z,16.79
2018-06-23T08:46:11.638Z,17.22
2018-06-23T08:47:11.546Z,17.23
2018-06-23T08:48:11.465Z,17.27
2018-06-23T08:49:11.381Z,17.48
2018-06-23T08:50:11.263Z,17.89
2018-06-23T08:51:11.173Z,17.82
2018-06-23T08:52:11.068Z,17.67
2018-06-23T08:53:10.974Z,17.11
2018-06-23T08:54:10.890Z,17.11
2018-06-23T08:55:10.799Z,17.39
2018-06-23T08:56:10.691Z,17.05
2018-06-23T08:57:10.601Z,16.94
2018-06-23T08:58:10.507Z,16.69
2018-06-23T08:59:10.418Z,16.61
2018-06-23T09:00:10.319Z,16.51
2018-06-23T09:01:10.227Z,16.54
2018-06-23T09:02:10.132Z,16.83
2018-06-23T09:03:10.042Z,17.04
2018-06-23T09:04:09.948Z,17.48
2018-06-23T09:05:09.852Z,17.87
2018-06-23T09:06:09.767Z,18.23
2018-06-23T09:07:09.672Z,18.34
2018-06-23T09:08:09.579Z,18.15
2018-06-23T09:09:09.476Z,18.18
2018-06-23T09:10:09.385Z,18.15
2018-06-23T09:11:09.298Z,17.97
2018-06-23T09:12:09.199Z,17.78
2018-06-23T09:13:09.112Z,17.94
2018-06-23T09:14:09.008Z,18.07
2018-06-23T09:15:08.916Z,18.04
2018-06-23T09:16:08.841Z,18.18
2018-06-23T09:17:08.739Z,17.97
2018-06-23T09:18:08.701Z,17.71
2018-06-23T09:19:08.556Z,17.44
2018-06-23T09:20:08.449Z,17.23
2018-06-23T09:21:08.369Z,17.34
2018-06-23T09:22:08.269Z,17.24
2018-06-23T09:23:08.181Z,17.16
2018-06-23T09:24:08.090Z,17.05
2018-06-23T09:25:07.999Z,16.84
2018-06-23T09:26:07.892Z,16.83
2018-06-23T09:27:07.799Z,16.69
2018-06-23T09:28:07.714Z,16.83
2018-06-23T09:29:07.623Z,16.94
2018-06-23T09:30:07.533Z,17.05
2018-06-23T09:31:07.444Z,17.41
2018-06-23T09:32:07.335Z,17.44
2018-06-23T09:33:07.244Z,17.45
2018-06-23T09:34:07.159Z,17.33
2018-06-23T09:35:07.066Z,17.31
2018-06-23T09:36:06.959Z,17.42
2018-06-23T09:37:06.869Z,17.68
2018-06-23T09:38:06.775Z,17.76
2018-06-23T09:39:06.685Z,17.85
2018-06-23T09:40:06.598Z,17.97
2018-06-23T09:41:06.494Z,18.01
2018-06-23T09:42:06.404Z,17.92
2018-06-23T09:43:06.313Z,17.57
2018-06-23T09:44:06.225Z,17.63
2018-06-23T09:45:06.122Z,17.79
2018-06-23T09:46:06.085Z,17.90
2018-06-23T09:47:05.937Z,18.15
2018-06-23T09:48:05.841Z,18.28
2018-06-23T09:49:05.752Z,18.25
2018-06-23T09:50:05.653Z,18.13
2018-06-23T09:51:05.561Z,18.00
2018-06-23T09:52:05.466Z,17.86
2018-06-23T09:53:05.375Z,17.64
2018-06-23T09:54:05.289Z,17.41
2018-06-23T09:55:05.185Z,17.49
2018-06-23T09:56:05.097Z,17.60
2018-06-23T09:57:05.006Z,17.68
2018-06-23T09:58:04.909Z,17.78
2018-06-23T09:59:04.819Z,17.71
2018-06-23T10:00:04.720Z,17.82
2018-06-23T10:01:04.628Z,17.64
2018-06-23T10:02:04.539Z,17.65
2018-06-23T10:03:04.465Z,17.89
2018-06-23T10:04:04.341Z,18.11
2018-06-23T10:05:04.254Z,18.60
2018-06-23T10:06:04.164Z,19.77
2018-06-23T10:07:04.074Z,19.66
2018-06-23T10:08:03.978Z,19.62
2018-06-23T10:09:03.874Z,19.39
2018-06-23T10:10:03.783Z,18.99
2018-06-23T10:11:03.693Z,18.68
2018-06-23T10:12:03.606Z,18.66
2018-06-23T10:13:03.513Z,18.73
2018-06-23T10:14:03.409Z,18.75
2018-06-23T10:15:03.318Z,18.77
2018-06-23T10:16:03.230Z,19.08
2018-06-23T10:17:03.140Z,19.19
2018-06-23T10:18:03.046Z,19.16
2018-06-23T10:19:02.957Z,19.19
2018-06-23T10:20:02.852Z,19.82
2018-06-23T10:21:02.758Z,20.97
2018-06-23T10:22:02.674Z,21.80
2018-06-23T10:23:02.586Z,22.55
2018-06-23T10:24:02.491Z,22.48
2018-06-23T10:25:02.397Z,23.00
2018-06-23T10:26:02.308Z,23.27
2018-06-23T10:27:02.214Z,24.01
2018-06-23T10:28:02.127Z,23.47
2018-06-23T10:29:02.036Z,22.54
2018-06-23T10:30:01.943Z,22.15
2018-06-23T10:31:01.851Z,21.07
2018-06-23T10:32:01.769Z,20.58
2018-06-23T10:33:01.687Z,20.36
2018-06-23T10:34:01.596Z,20.02
2018-06-23T10:35:01.504Z,19.85
2018-06-23T10:36:01.408Z,19.69
2018-06-23T10:37:01.317Z,19.31
2018-06-23T10:38:01.233Z,19.30
2018-06-23T10:39:01.141Z,19.19
2018-06-23T10:40:01.051Z,19.11
2018-06-23T10:41:00.954Z,19.09
2018-06-23T10:42:00.864Z,19.00
2018-06-23T10:43:00.775Z,18.88
2018-06-23T10:44:00.687Z,18.96
2018-06-23T10:45:00.598Z,19.56
2018-06-23T10:46:00.501Z,20.41
2018-06-23T10:47:00.411Z,19.85
2018-06-23T10:48:00.322Z,19.92
2018-06-23T10:49:00.234Z,21.02
2018-06-23T10:50:00.151Z,21.29
2018-06-23T10:51:00.056Z,20.87
2018-06-23T10:51:59.959Z,20.82
2018-06-23T10:52:59.867Z,21.37
2018-06-23T10:53:59.778Z,22.75
2018-06-23T10:54:59.691Z,23.21
2018-06-23T10:55:59.593Z,22.55
2018-06-23T10:56:59.503Z,21.83
2018-06-23T10:57:59.411Z,21.42
2018-06-23T10:58:59.332Z,21.51
2018-06-23T10:59:59.245Z,21.99
2018-06-23T11:00:59.157Z,22.25
2018-06-23T11:01:59.062Z,22.48
2018-06-23T11:02:58.974Z,23.08
2018-06-23T11:03:58.888Z,23.68
2018-06-23T11:04:58.962Z,24.43
2018-06-23T11:05:58.701Z,24.16
2018-06-23T11:06:58.622Z,24.05
2018-06-23T11:07:58.540Z,24.02
2018-06-23T11:08:58.438Z,23.36
2018-06-23T11:09:58.350Z,23.91
2018-06-23T11:10:58.271Z,23.92
2018-06-23T11:11:58.176Z,23.77
2018-06-23T11:12:58.099Z,23.71
2018-06-23T11:13:58.010Z,23.28
2018-06-23T11:14:57.919Z,22.68
2018-06-23T11:15:57.832Z,22.47
2018-06-23T11:16:57.753Z,22.07
2018-06-23T11:17:57.658Z,21.60
2018-06-23T11:18:57.566Z,21.15
2018-06-23T11:19:57.491Z,20.99
2018-06-23T11:20:57.401Z,20.99
2018-06-23T11:21:57.311Z,20.85
2018-06-23T11:22:57.222Z,21.58
2018-06-23T11:23:57.139Z,21.93
2018-06-23T11:24:57.048Z,21.96
2018-06-23T11:25:56.957Z,21.99
2018-06-23T11:26:56.866Z,21.89
2018-06-23T11:27:56.781Z,22.14
2018-06-23T11:28:56.703Z,22.55
2018-06-23T11:29:56.609Z,23.51
2018-06-23T11:30:56.518Z,24.42
2018-06-23T11:31:56.422Z,23.25
2018-06-23T11:32:56.333Z,22.87
2018-06-23T11:33:56.260Z,23.51
2018-06-23T11:34:56.169Z,23.47
2018-06-23T11:35:56.074Z,23.92
2018-06-23T11:36:55.999Z,23.24
2018-06-23T11:37:55.902Z,22.91
2018-06-23T11:38:55.812Z,22.68
2018-06-23T11:39:55.745Z,22.28
2018-06-23T11:40:55.635Z,21.77
2018-06-23T11:41:55.804Z,21.57
2018-06-23T11:42:55.464Z,21.36
2018-06-23T11:43:55.375Z,21.09
2018-06-23T11:44:55.283Z,21.14
2018-06-23T11:45:55.208Z,20.82
2018-06-23T11:46:55.117Z,20.62
2018-06-23T11:47:55.021Z,20.85
2018-06-23T11:48:54.931Z,21.67
2018-06-23T11:49:54.842Z,22.36
2018-06-23T11:50:54.752Z,21.98
2018-06-23T11:51:54.657Z,21.80
2018-06-23T11:52:54.578Z,21.70
2018-06-23T11:53:54.490Z,21.46
2018-06-23T11:54:54.397Z,21.02
2018-06-23T11:55:54.313Z,20.66
2018-06-23T11:56:54.221Z,20.56
2018-06-23T11:57:54.126Z,20.70
2018-06-23T11:58:54.036Z,21.58
2018-06-23T11:59:53.949Z,22.02
2018-06-23T12:00:53.871Z,22.51
2018-06-23T12:01:53.791Z,21.79
2018-06-23T12:02:53.688Z,21.43
2018-06-23T12:03:53.591Z,20.81
2018-06-23T12:04:53.500Z,20.55
2018-06-23T12:05:53.415Z,20.32
2018-06-23T12:06:53.325Z,20.16
2018-06-23T12:07:53.229Z,19.94
2018-06-23T12:08:53.144Z,19.74
2018-06-23T12:09:53.059Z,19.88
2018-06-23T12:10:52.968Z,19.70
2018-06-23T12:11:52.881Z,19.76
2018-06-23T12:12:52.790Z,20.11
2018-06-23T12:13:52.697Z,20.32
2018-06-23T12:14:52.605Z,20.34
2018-06-23T12:15:52.519Z,20.18
2018-06-23T12:16:52.427Z,20.03
2018-06-23T12:17:52.351Z,20.03
2018-06-23T12:18:52.260Z,19.63
2018-06-23T12:19:52.166Z,19.77
2018-06-23T12:20:52.075Z,19.81
2018-06-23T12:21:51.987Z,20.04
2018-06-23T12:22:51.899Z,20.07
2018-06-23T12:23:51.800Z,20.19
2018-06-23T12:24:51.709Z,20.37
2018-06-23T12:25:51.620Z,20.28
2018-06-23T12:26:51.530Z,20.75
2018-06-23T12:27:51.443Z,20.37
2018-06-23T12:28:51.353Z,20.44
2018-06-23T12:29:51.258Z,20.60
2018-06-23T12:30:51.176Z,20.63
2018-06-23T12:31:51.090Z,20.59
2018-06-23T12:32:50.998Z,20.66
2018-06-23T12:33:50.911Z,20.60
2018-06-23T12:34:50.819Z,20.59
2018-06-23T12:35:50.725Z,20.70
2018-06-23T12:36:50.634Z,20.69
2018-06-23T12:37:50.545Z,20.56
2018-06-23T12:38:50.454Z,20.63
2018-06-23T12:39:50.360Z,20.74
2018-06-23T12:40:50.320Z,20.81
2018-06-23T12:41:50.181Z,20.77
2018-06-23T12:42:50.091Z,20.93
2018-06-23T12:43:50.002Z,20.75
2018-06-23T12:44:49.911Z,20.63
2018-06-23T12:45:49.818Z,20.32
2018-06-23T12:46:49.738Z,20.31
2018-06-23T12:47:49.639Z,20.47
2018-06-23T12:48:49.552Z,20.28
2018-06-23T12:49:49.456Z,20.28
2018-06-23T12:50:49.364Z,20.18